Santa Isabel, Brazil
Current Conditions -  °F | °C
As of 6:00 PM on Thursday 29 Jan 2015 (Local Time) from SBGR Reporting Station
Scattered Clouds Scattered Clouds  
Wind Chill: 28°   Ceiling: Unl
Heat Index: 29°   Visibility: 6mi
Dew Point: 19°   Wind: 14mph
Humidity: 58%   Direction: 300°WNW
Pressure: 29.97"   Gusts: NA
Location:  23.32°S, 46.22°W
Report Text: SBGR 292000Z 30012KT 9999 FEW040 SCT100 28/19 Q1015
Loading
Personal Weather Stations






























Interactive Weather Map New forecast layout! Learn more

10-Day Weather Forecast

Advertisements
Track Severe Weather on mobile